Time;durP1;ratioP1;P1;durP2;ratioP2;P2;SDS_P1;SDS_P2;PMS_P1;PMS_P2;Temp;Humidity;BMP_temperature;BMP_pressure;BME280_temperature;BME280_humidity;BME280_pressure;Samples;Min_cycle;Max_cycle;Signal;HPM_P1;HPM_P2
2022/12/27 00:01:36;;;;;;;35.75;17.92;;;;;;;1.89;85.74;100966.50;5089051;28;20028;-26
2022/12/27 00:04:02;;;;;;;35.88;18.48;;;;;;;2.04;84.52;100960.81;5089185;28;20028;-28
2022/12/27 00:06:28;;;;;;;32.47;16.83;;;;;;;1.94;84.60;100953.78;5089638;28;20102;-26
2022/12/27 00:08:55;;;;;;;33.75;18.75;;;;;;;2.10;84.64;100968.13;5089357;28;20042;-27
2022/12/27 00:11:23;;;;;;;33.72;18.02;;;;;;;2.08;84.71;100938.50;5071123;28;20089;-30
2022/12/27 00:13:49;;;;;;;32.30;17.25;;;;;;;2.22;83.73;100961.72;5070910;28;20032;-25
2022/12/27 00:16:18;;;;;;;33.58;18.48;;;;;;;2.16;84.04;100959.66;5089009;28;20039;-28
2022/12/27 00:18:45;;;;;;;33.85;18.33;;;;;;;1.82;83.70;100931.22;5089213;28;20032;-27
2022/12/27 00:21:12;;;;;;;33.67;18.58;;;;;;;1.81;84.02;100947.97;5070916;28;20048;-26
2022/12/27 00:23:40;;;;;;;33.28;19.00;;;;;;;1.86;83.93;100972.06;5089046;28;20024;-26
2022/12/27 00:26:12;;;;;;;32.28;18.25;;;;;;;1.80;84.33;100947.13;5088708;28;20063;-26
2022/12/27 00:28:38;;;;;;;35.67;20.33;;;;;;;1.91;84.12;100975.06;5088898;28;20160;-26
2022/12/27 00:31:04;;;;;;;34.88;18.48;;;;;;;1.87;84.04;100947.41;5089285;28;20687;-26
2022/12/27 00:33:31;;;;;;;38.45;21.33;;;;;;;2.18;84.08;100952.47;5088957;28;20078;-25
2022/12/27 00:35:58;;;;;;;34.97;20.88;;;;;;;2.08;84.32;100960.38;5089185;28;20086;-26
2022/12/27 00:38:24;;;;;;;42.53;24.35;;;;;;;2.20;83.85;100950.50;5088894;28;20020;-26
2022/12/27 00:40:49;;;;;;;40.80;23.73;;;;;;;2.38;82.52;100961.97;5092738;28;20034;-25
2022/12/27 00:43:14;;;;;;;36.80;20.13;;;;;;;1.98;83.75;100970.94;5092831;28;20028;-26
2022/12/27 00:45:40;;;;;;;35.70;20.73;;;;;;;1.67;84.45;100969.41;5074668;28;20059;-25
2022/12/27 00:48:05;;;;;;;37.53;19.25;;;;;;;1.48;83.10;100952.66;5092870;28;20032;-25
2022/12/27 00:50:31;;;;;;;36.90;18.60;;;;;;;1.09;82.85;100957.06;5092819;28;20024;-26
2022/12/27 00:52:56;;;;;;;37.25;19.13;;;;;;;0.84;83.35;100927.69;5074548;28;20020;-30
2022/12/27 00:55:21;;;;;;;43.80;20.58;;;;;;;0.86;83.67;100953.78;5092543;28;20028;-26
2022/12/27 00:57:47;;;;;;;40.15;20.27;;;;;;;0.86;85.04;100927.53;5092626;28;20146;-25
2022/12/27 01:00:13;;;;;;;43.78;20.30;;;;;;;1.51;83.08;100944.53;5092628;28;20032;-25
2022/12/27 01:02:39;;;;;;;38.83;20.88;;;;;;;1.51;82.80;100951.56;5092479;28;20024;-25
2022/12/27 01:05:05;;;;;;;36.25;20.13;;;;;;;1.65;83.05;100947.69;5074409;28;20055;-25
2022/12/27 01:07:30;;;;;;;51.88;29.75;;;;;;;1.88;82.15;100943.81;5092301;28;20024;-26
2022/12/27 01:09:56;;;;;;;41.30;24.42;;;;;;;1.63;82.20;100941.75;5057711;28;20024;-28
2022/12/27 01:12:21;;;;;;;35.42;19.50;;;;;;;0.95;83.02;100919.69;5073647;28;20027;-26
2022/12/27 01:14:47;;;;;;;36.97;18.85;;;;;;;0.86;82.12;100922.28;5092621;28;20024;-25
2022/12/27 01:17:12;;;;;;;31.02;16.25;;;;;;;0.65;82.56;100919.75;5092274;28;20024;-24
2022/12/27 01:19:38;;;;;;;57.22;24.80;;;;;;;0.85;84.18;100941.66;5092327;28;20031;-26
2022/12/27 01:22:05;;;;;;;71.18;31.88;;;;;;;1.07;84.47;100943.22;5073801;28;20078;-25
2022/12/27 01:24:31;;;;;;;57.95;28.33;;;;;;;1.25;84.22;100925.84;5073844;28;20025;-28
2022/12/27 01:26:57;;;;;;;56.92;26.80;;;;;;;1.31;84.66;100940.19;5092355;28;20165;-25
2022/12/27 01:29:23;;;;;;;57.92;28.13;;;;;;;1.20;83.81;100918.34;5073946;28;20558;-25
2022/12/27 01:31:48;;;;;;;48.13;25.20;;;;;;;0.87;85.05;100905.56;5092217;28;20036;-25
2022/12/27 01:34:15;;;;;;;49.58;26.23;;;;;;;1.12;85.59;100933.94;5091862;28;20028;-26
2022/12/27 01:36:41;;;;;;;44.97;24.38;;;;;;;1.17;85.08;100902.84;5092108;28;20028;-26
2022/12/27 01:39:09;;;;;;;97.93;44.03;;;;;;;1.42;84.58;100908.53;5091914;28;20036;-26
2022/12/27 01:44:41;;;;;;;45.08;24.23;;;;;;;1.83;82.87;100924.97;5091644;28;20069;-26
2022/12/27 01:47:16;;;;;;;50.70;25.27;;;;;;;1.64;82.93;100890.81;5092310;28;20024;-26
2022/12/27 01:49:54;;;;;;;41.85;21.60;;;;;;;1.67;83.48;100909.75;5091854;28;20039;-28
2022/12/27 01:52:20;;;;;;;43.50;22.17;;;;;;;1.48;83.85;100897.47;5091568;28;20507;-26
2022/12/27 01:54:46;;;;;;;43.25;22.35;;;;;;;1.37;84.97;100884.50;5073568;28;20039;-26
2022/12/27 01:57:11;;;;;;;49.83;23.80;;;;;;;1.47;83.89;100882.69;5091798;28;20392;-28
2022/12/27 01:59:38;;;;;;;50.13;25.15;;;;;;;1.11;85.47;100887.66;5091504;28;20403;-25
2022/12/27 02:02:03;;;;;;;54.83;25.98;;;;;;;1.08;86.43;100871.31;5091317;28;20031;-26
2022/12/27 02:04:30;;;;;;;47.58;24.05;;;;;;;1.51;85.15;100906.88;5091189;28;20568;-27
2022/12/27 02:06:57;;;;;;;54.65;30.25;;;;;;;1.63;83.52;100908.38;5091816;28;20031;-27
2022/12/27 02:09:40;;;;;;;50.53;25.98;;;;;;;1.68;83.20;100916.69;5073065;28;20028;-25
2022/12/27 02:12:08;;;;;;;45.03;23.55;;;;;;;1.63;82.77;100910.19;5073159;28;20027;-24
2022/12/27 02:14:35;;;;;;;43.90;23.67;;;;;;;1.49;83.55;100896.50;5091222;28;20047;-26
2022/12/27 02:17:07;;;;;;;44.65;24.98;;;;;;;1.04;85.07;100886.50;5091106;28;20043;-25
2022/12/27 02:19:41;;;;;;;52.10;24.27;;;;;;;0.61;84.26;100874.56;5091397;28;20048;-29
2022/12/27 02:22:28;;;;;;;42.97;24.20;;;;;;;0.84;84.02;100887.44;5072535;28;20060;-25
2022/12/27 02:25:20;;;;;;;40.10;21.58;;;;;;;0.72;83.72;100892.00;5090915;28;20028;-26
2022/12/27 02:28:11;;;;;;;36.97;19.55;;;;;;;0.55;84.26;100888.22;5073059;28;20142;-25
2022/12/27 02:30:37;;;;;;;45.70;21.92;;;;;;;0.39;83.92;100868.56;5072733;28;20028;-25
2022/12/27 02:33:12;;;;;;;36.53;20.20;;;;;;;0.31;84.90;100888.56;5091043;28;20116;-25
2022/12/27 02:36:03;;;;;;;36.30;19.20;;;;;;;0.46;83.57;100907.41;5072410;28;20024;-29
2022/12/27 02:38:41;;;;;;;40.30;20.92;;;;;;;0.22;83.84;100900.66;5072517;28;20027;-25
2022/12/27 02:53:04;;;;;;;44.00;21.27;;;;;;;1.05;83.71;100901.31;5090542;28;20038;-29
2022/12/27 02:58:39;;;;;;;48.30;21.75;;;;;;;0.31;84.07;100884.13;5090557;28;20058;-27
2022/12/27 03:04:45;;;;;;;47.75;25.10;;;;;;;0.84;83.71;100880.44;5090335;28;20447;-25
2022/12/27 03:07:29;;;;;;;43.05;23.52;;;;;;;0.86;83.35;100877.66;5090406;28;20030;-25
2022/12/27 03:16:00;;;;;;;36.33;20.23;;;;;;;0.90;85.16;100876.41;5090101;28;20035;-27
2022/12/27 03:18:51;;;;;;;43.88;24.08;;;;;;;1.05;85.73;100874.22;5090134;28;20085;-25
2022/12/27 03:26:58;;;;;;;38.10;20.35;;;;;;;0.90;85.30;100873.78;5090214;28;20176;-25
2022/12/27 03:35:18;;;;;;;39.53;19.63;;;;;;;0.68;82.21;100859.94;5090217;28;20058;-26
2022/12/27 03:38:03;;;;;;;29.27;18.27;;;;;;;0.62;83.02;100854.41;5089949;28;20028;-25
2022/12/27 03:43:09;;;;;;;34.70;18.98;;;;;;;0.68;82.12;100859.94;5071784;28;20055;-26
2022/12/27 03:43:29;;;;;;;39.33;18.88;;;;;;;0.89;81.89;100864.25;5089401;28;20407;-26
2022/12/27 03:46:33;;;;;;;36.08;18.60;;;;;;;0.41;83.93;100855.31;5089538;28;20031;-27
2022/12/27 03:49:01;;;;;;;31.77;18.30;;;;;;;0.45;83.79;100858.47;5071506;28;20028;-26
2022/12/27 03:51:30;;;;;;;;;;;;;;;0.64;82.83;100863.81;5090062;28;20043;-26
2022/12/27 03:54:05;;;;;;;34.17;18.15;;;;;;;0.53;83.19;100829.78;5089595;28;20379;-25
2022/12/27 03:56:31;;;;;;;32.38;18.48;;;;;;;0.69;83.05;100861.59;5089654;28;20021;-25
2022/12/27 03:58:58;;;;;;;31.75;18.92;;;;;;;0.30;82.33;100850.16;5071112;28;20027;-31
2022/12/27 04:01:24;;;;;;;32.03;18.92;;;;;;;0.21;83.92;100838.66;5089474;28;20035;-28
2022/12/27 04:03:49;;;;;;;37.70;18.70;;;;;;;0.63;83.65;100859.50;5089548;28;20024;-25
2022/12/27 04:06:14;;;;;;;38.10;20.30;;;;;;;0.65;83.33;100857.56;5088012;28;20036;-27
2022/12/27 04:36:00;;;;;;;194.90;92.88;;;;;;;0.90;82.72;100847.53;5092778;28;20411;-25
2022/12/27 04:38:26;;;;;;;46.17;23.27;;;;;;;1.06;81.36;100852.25;5093116;28;20036;-26
2022/12/27 04:54:57;;;;;;;45.65;24.02;;;;;;;0.55;83.12;100875.09;5092848;28;20093;-25
2022/12/27 04:57:23;;;;;;;203.13;107.72;;;;;;;0.44;83.29;100856.84;5092545;28;20077;-24
2022/12/27 05:02:32;;;;;;;26.92;14.75;;;;;;;0.18;84.83;100857.28;5092818;28;20027;-27
2022/12/27 05:04:58;;;;;;;30.48;16.55;;;;;;;0.34;82.64;100862.88;5092491;28;20028;-28
2022/12/27 05:15:36;;;;;;;96.57;47.28;;;;;;;-0.14;84.80;100879.22;5092364;28;20433;-26
2022/12/27 05:18:03;;;;;;;43.92;24.55;;;;;;;-0.14;84.60;100863.50;5091928;28;20103;-26
2022/12/27 05:20:29;;;;;;;57.60;31.23;;;;;;;0.28;84.02;100883.56;5092069;28;20032;-25
2022/12/27 05:25:43;;;;;;;48.05;23.75;;;;;;;0.39;83.32;100876.44;5091866;28;20133;-25
2022/12/27 05:28:11;;;;;;;43.88;22.30;;;;;;;0.40;83.40;100875.47;5091924;28;20085;-28
2022/12/27 05:30:38;;;;;;;35.93;19.37;;;;;;;0.23;83.36;100849.03;5092105;28;20105;-26
2022/12/27 05:33:04;;;;;;;46.33;29.15;;;;;;;0.36;84.21;100881.13;5092026;28;20203;-29
2022/12/27 05:35:30;;;;;;;44.55;25.42;;;;;;;0.17;84.48;100887.13;5092156;28;20574;-25
2022/12/27 05:37:56;;;;;;;41.53;24.00;;;;;;;-0.12;83.42;100872.06;5092175;28;20024;-30
2022/12/27 05:40:23;;;;;;;46.72;24.20;;;;;;;0.16;84.60;100890.69;5073554;28;20035;-26
2022/12/27 05:42:48;;;;;;;50.15;25.63;;;;;;;0.55;82.52;100888.22;5091836;28;20032;-27
2022/12/27 05:45:14;;;;;;;54.03;28.15;;;;;;;0.74;82.09;100885.66;5091702;28;20089;-27
2022/12/27 05:47:40;;;;;;;53.47;26.48;;;;;;;0.38;82.42;100890.50;5091696;28;20032;-26
2022/12/27 05:50:06;;;;;;;66.53;37.20;;;;;;;0.45;82.39;100898.69;5091967;28;20407;-33
2022/12/27 05:52:31;;;;;;;68.07;39.22;;;;;;;0.28;84.89;100897.50;5091774;28;20024;-27
2022/12/27 05:54:57;;;;;;;68.13;38.92;;;;;;;0.40;84.24;100896.44;5073416;28;20042;-26
2022/12/27 05:57:22;;;;;;;67.20;36.95;;;;;;;0.52;83.60;100899.00;5091549;28;20175;-25
2022/12/27 05:59:47;;;;;;;70.20;34.60;;;;;;;0.67;82.78;100895.00;5091414;28;20032;-25
2022/12/27 06:02:13;;;;;;;63.72;32.22;;;;;;;0.84;82.50;100901.44;5091357;28;20020;-28
2022/12/27 06:04:38;;;;;;;56.47;28.73;;;;;;;0.94;81.83;100901.44;5073212;28;20047;-26
2022/12/27 06:07:04;;;;;;;81.88;42.83;;;;;;;0.57;83.40;100899.41;5091233;28;20043;-25
2022/12/27 06:09:29;;;;;;;92.63;46.10;;;;;;;0.56;82.93;100909.09;5091391;28;20032;-25
2022/12/27 06:11:55;;;;;;;57.97;28.10;;;;;;;0.21;83.40;100899.00;5091215;28;20412;-25
2022/12/27 06:14:20;;;;;;;64.47;32.08;;;;;;;0.28;84.95;100900.13;5089669;28;20484;-25
2022/12/27 06:16:46;;;;;;;79.50;37.08;;;;;;;0.58;84.50;100890.59;5091496;28;20028;-29
2022/12/27 06:19:11;;;;;;;73.63;36.53;;;;;;;0.55;84.26;100917.09;5091437;28;20032;-25
2022/12/27 06:21:36;;;;;;;73.13;42.05;;;;;;;0.50;84.16;100883.38;5090898;28;20075;-25
2022/12/27 06:24:02;;;;;;;51.35;29.95;;;;;;;0.90;84.08;100902.66;5090694;28;20146;-26
2022/12/27 06:26:28;;;;;;;55.20;29.45;;;;;;;1.13;83.05;100890.97;5091044;28;20050;-27
2022/12/27 06:28:56;;;;;;;68.95;30.42;;;;;;;0.80;84.49;100876.41;5090697;28;20024;-27
2022/12/27 06:31:22;;;;;;;60.40;29.30;;;;;;;0.95;84.03;100884.72;5091043;28;20032;-29
2022/12/27 06:33:50;;;;;;;64.50;31.08;;;;;;;1.22;83.42;100899.00;5090756;28;20158;-26
2022/12/27 06:36:17;;;;;;;60.17;32.45;;;;;;;1.48;82.87;100910.59;5072533;28;20039;-25
2022/12/27 06:38:44;;;;;;;63.38;34.95;;;;;;;1.34;84.30;100913.66;5072062;28;20055;-26
2022/12/27 06:41:12;;;;;;;63.00;33.65;;;;;;;1.50;84.20;100913.94;5090848;28;20086;-28
2022/12/27 06:43:38;;;;;;;74.28;38.13;;;;;;;1.65;83.63;100921.41;5090467;28;20028;-28
2022/12/27 06:46:12;;;;;;;107.78;47.30;;;;;;;1.57;84.16;100920.31;5090649;28;20035;-25
2022/12/27 06:48:38;;;;;;;66.45;34.42;;;;;;;1.42;84.91;100921.69;5089541;28;20054;-25
2022/12/27 06:51:07;;;;;;;57.08;31.77;;;;;;;1.56;85.49;100910.75;5072305;28;20555;-25
2022/12/27 06:53:35;;;;;;;44.22;24.42;;;;;;;1.91;84.04;100916.38;5090775;28;20481;-25
2022/12/27 06:56:05;;;;;;;39.67;22.23;;;;;;;2.12;84.05;100913.56;5071823;28;20114;-26
2022/12/27 06:58:31;;;;;;;50.00;25.88;;;;;;;2.18;84.40;100894.56;5090604;28;20031;-26
2022/12/27 07:00:56;;;;;;;60.63;33.53;;;;;;;2.22;83.84;100878.34;5090216;28;20020;-25
2022/12/27 07:03:21;;;;;;;58.72;33.67;;;;;;;2.30;84.69;100896.03;5090503;28;20028;-26
2022/12/27 07:05:47;;;;;;;48.10;28.33;;;;;;;2.54;84.71;100905.25;5090063;28;20463;-26
2022/12/27 07:08:13;;;;;;;46.72;27.73;;;;;;;2.70;84.42;100902.81;5090010;28;20032;-26
2022/12/27 07:10:38;;;;;;;45.15;27.30;;;;;;;2.76;84.48;100904.03;5090262;28;20031;-25
2022/12/27 07:13:04;;;;;;;38.67;24.73;;;;;;;2.94;83.67;100893.50;5090156;28;20032;-25
2022/12/27 07:15:29;;;;;;;32.67;18.67;;;;;;;3.13;82.76;100900.47;5090226;28;20027;-27
2022/12/27 07:17:54;;;;;;;32.28;18.77;;;;;;;3.04;82.52;100894.25;5089875;28;20387;-27
2022/12/27 07:20:20;;;;;;;31.60;18.88;;;;;;;2.97;83.44;100885.31;5089807;28;20090;-25
2022/12/27 07:22:46;;;;;;;30.48;18.48;;;;;;;3.09;82.83;100897.28;5089772;28;20071;-27
2022/12/27 07:25:11;;;;;;;31.38;18.30;;;;;;;3.01;82.30;100860.31;5090361;28;20161;-26
2022/12/27 07:27:37;;;;;;;30.05;16.67;;;;;;;3.30;81.61;100883.00;5071657;28;20043;-25
2022/12/27 07:30:04;;;;;;;29.85;17.88;;;;;;;3.20;82.17;100872.50;5089824;28;20054;-25
2022/12/27 07:32:29;;;;;;;31.02;17.38;;;;;;;3.56;81.77;100894.41;5089857;28;20086;-26
2022/12/27 07:34:55;;;;;;;28.45;16.52;;;;;;;3.65;81.65;100897.13;5071465;28;20024;-27
2022/12/27 07:37:20;;;;;;;28.67;16.75;;;;;;;3.62;81.63;100893.81;5089987;28;20078;-27
2022/12/27 07:39:46;;;;;;;32.28;18.00;;;;;;;3.76;82.78;100894.22;5089505;28;20483;-25
2022/12/27 07:42:12;;;;;;;30.02;17.20;;;;;;;3.96;79.97;100890.44;5071495;28;20503;-26
2022/12/27 07:44:37;;;;;;;31.83;17.08;;;;;;;3.78;81.84;100881.69;5071399;28;20051;-27
2022/12/27 07:47:03;;;;;;;28.42;17.77;;;;;;;3.81;81.43;100886.69;5090062;28;20449;-26
2022/12/27 07:49:29;;;;;;;27.58;16.65;;;;;;;3.96;81.31;100884.28;5071262;28;20184;-25
2022/12/27 07:51:54;;;;;;;37.50;21.75;;;;;;;4.01;80.77;100888.13;5089766;28;20123;-28
2022/12/27 07:54:19;;;;;;;31.88;20.45;;;;;;;3.95;82.49;100882.66;5071072;28;20041;-26
2022/12/27 07:56:45;;;;;;;32.30;17.35;;;;;;;4.21;80.98;100885.28;5089802;28;20052;-26
2022/12/27 07:59:12;;;;;;;27.25;15.38;;;;;;;4.16;81.52;100877.00;5089711;28;20028;-28
2022/12/27 08:04:22;;;;;;;27.45;16.60;;;;;;;4.76;81.34;100881.34;5089341;28;20071;-26
2022/12/27 08:06:47;;;;;;;23.77;15.65;;;;;;;4.94;79.34;100878.59;5071083;28;20051;-29
2022/12/27 08:09:16;;;;;;;26.25;16.70;;;;;;;5.02;79.95;100892.66;5089622;28;20061;-26
2022/12/27 08:11:41;;;;;;;25.92;16.83;;;;;;;5.10;79.70;100889.22;5071132;28;20114;-25
2022/12/27 08:14:07;;;;;;;34.53;19.77;;;;;;;5.14;79.29;100858.81;5087939;28;20130;-26
2022/12/27 08:16:32;;;;;;;41.72;20.85;;;;;;;5.33;79.91;100888.56;5089448;28;20400;-28
2022/12/27 08:18:58;;;;;;;31.35;17.67;;;;;;;5.50;79.12;100886.78;5089465;28;20046;-26
2022/12/27 08:21:23;;;;;;;31.75;18.83;;;;;;;5.38;79.39;100889.75;5088770;28;20140;-30
2022/12/27 08:23:48;;;;;;;36.83;20.35;;;;;;;5.70;79.78;100882.81;5089447;28;20040;-25
2022/12/27 08:26:14;;;;;;;29.52;17.23;;;;;;;6.00;76.19;100875.97;5089148;28;20030;-26
2022/12/27 08:28:40;;;;;;;27.83;16.42;;;;;;;6.21;77.58;100875.47;5089078;28;20028;-27
2022/12/27 08:31:07;;;;;;;29.42;17.42;;;;;;;6.22;75.95;100885.03;5071015;28;20032;-26
2022/12/27 08:33:33;;;;;;;30.98;17.40;;;;;;;6.27;75.93;100875.75;5089091;28;20034;-26
2022/12/27 08:36:04;;;;;;;32.70;18.70;;;;;;;6.06;75.92;100885.09;5089051;28;20020;-28
2022/12/27 08:38:29;;;;;;;30.08;17.73;;;;;;;5.94;77.83;100850.16;5089203;28;20028;-25
2022/12/27 08:40:54;;;;;;;28.08;16.95;;;;;;;6.23;75.23;100869.97;5089231;28;20082;-26
2022/12/27 08:43:20;;;;;;;27.73;16.73;;;;;;;6.41;74.70;100859.97;5088832;28;20028;-27
2022/12/27 08:45:45;;;;;;;28.50;17.80;;;;;;;6.31;74.15;100851.41;5089107;28;20020;-29
2022/12/27 08:48:11;;;;;;;28.25;17.48;;;;;;;6.02;76.33;100836.94;5070688;28;20024;-27
2022/12/27 08:50:36;;;;;;;26.85;17.30;;;;;;;6.50;75.54;100818.38;5088791;28;20016;-26
2022/12/27 08:53:03;;;;;;;27.13;16.08;;;;;;;6.47;74.13;100817.91;5089207;28;20032;-27
2022/12/27 08:55:29;;;;;;;27.52;16.90;;;;;;;6.90;73.63;100850.13;5088904;28;20515;-27
2022/12/27 08:58:03;;;;;;;25.75;16.13;;;;;;;7.26;72.58;100854.84;5070849;28;20040;-27
2022/12/27 09:00:29;;;;;;;23.40;16.30;;;;;;;7.48;70.83;100851.34;5089860;28;20024;-27
2022/12/27 09:02:55;;;;;;;25.25;17.35;;;;;;;7.49;72.89;100844.22;5074411;28;20028;-28
2022/12/27 09:05:22;;;;;;;28.20;17.83;;;;;;;7.78;70.84;100840.78;5074372;28;20093;-30
2022/12/27 09:07:48;;;;;;;27.02;17.33;;;;;;;7.38;73.45;100837.50;5092711;28;20099;-28
2022/12/27 09:10:14;;;;;;;28.98;19.13;;;;;;;7.74;72.43;100839.50;5092501;28;20032;-27
2022/12/27 09:12:39;;;;;;;27.42;17.30;;;;;;;8.04;71.39;100841.16;5092547;28;20564;-26
2022/12/27 09:15:06;;;;;;;26.90;17.27;;;;;;;7.84;70.93;100821.47;5092515;28;20032;-25
2022/12/27 09:17:31;;;;;;;26.65;17.15;;;;;;;8.00;70.57;100821.28;5073965;28;20614;-29
2022/12/27 09:19:57;;;;;;;29.50;17.75;;;;;;;8.22;72.29;100835.47;5092516;28;20124;-26
2022/12/27 09:22:22;;;;;;;26.67;17.20;;;;;;;8.31;71.14;100822.91;5092077;28;20522;-29
2022/12/27 09:24:47;;;;;;;30.20;19.45;;;;;;;8.37;70.37;100778.81;5092241;28;20110;-28
2022/12/27 09:27:13;;;;;;;27.40;18.00;;;;;;;8.79;68.88;100802.03;5073965;28;20035;-27
2022/12/27 09:29:38;;;;;;;29.95;18.45;;;;;;;8.80;68.31;100798.34;5092134;28;20027;-26
2022/12/27 09:32:04;;;;;;;26.92;17.88;;;;;;;8.80;67.82;100806.31;5091883;28;20480;-27
2022/12/27 09:34:30;;;;;;;28.20;18.98;;;;;;;8.98;66.25;100791.78;5073650;28;20028;-26
2022/12/27 09:36:56;;;;;;;33.95;18.67;;;;;;;9.08;67.21;100791.47;5073984;28;20483;-26
2022/12/27 09:39:21;;;;;;;25.77;16.58;;;;;;;9.37;65.30;100801.13;5073807;28;20027;-31
2022/12/27 09:42:10;;;;;;;28.95;17.85;;;;;;;9.96;65.33;100792.69;5092085;28;20039;-26
2022/12/27 09:44:36;;;;;;;21.70;15.55;;;;;;;10.35;64.01;100785.94;5091839;28;20020;-27
2022/12/27 09:47:07;;;;;;;25.13;16.35;;;;;;;10.56;63.96;100779.66;5091718;28;20031;-25
2022/12/27 09:49:37;;;;;;;25.52;16.83;;;;;;;10.63;63.13;100772.47;5091750;28;20017;-27
2022/12/27 09:52:18;;;;;;;26.35;16.38;;;;;;;11.00;60.84;100782.81;5073586;28;20490;-26
2022/12/27 09:54:43;;;;;;;25.88;16.80;;;;;;;11.06;60.25;100773.97;5092145;28;20058;-26
2022/12/27 09:57:25;;;;;;;24.25;16.45;;;;;;;11.25;60.35;100770.47;5091533;28;20059;-27
2022/12/27 09:59:57;;;;;;;24.45;16.33;;;;;;;11.62;59.41;100757.50;5073644;28;20020;-26
2022/12/27 10:02:25;;;;;;;24.52;16.38;;;;;;;11.89;59.00;100773.53;5073321;28;20423;-26
2022/12/27 10:04:51;;;;;;;;;;;;;;;12.14;56.49;100776.31;5091959;28;20054;-27
2022/12/27 10:07:44;;;;;;;25.13;16.65;;;;;;;12.02;56.76;100778.81;5091550;28;19916;-26
2022/12/27 10:10:21;;;;;;;27.38;18.60;;;;;;;12.25;56.19;100777.47;5073350;28;20101;-26
2022/12/27 10:13:09;;;;;;;24.75;16.83;;;;;;;12.50;57.52;100768.72;5090053;28;20494;-30
2022/12/27 10:15:50;;;;;;;23.98;15.48;;;;;;;12.53;55.94;100762.97;5091503;28;20101;-26
2022/12/27 10:18:19;;;;;;;23.65;14.80;;;;;;;13.05;54.36;100766.28;5091011;28;20020;-27
2022/12/27 10:20:47;;;;;;;23.83;14.90;;;;;;;13.05;54.12;100768.97;5091140;28;20059;-31
2022/12/27 10:23:18;;;;;;;23.23;14.55;;;;;;;13.36;54.71;100756.59;5072978;28;20035;-27
2022/12/27 10:25:45;;;;;;;25.33;15.32;;;;;;;13.24;53.78;100738.53;5073005;28;20085;-27
2022/12/27 10:28:16;;;;;;;23.88;15.32;;;;;;;13.08;54.27;100749.81;5090820;28;20563;-26
2022/12/27 10:30:42;;;;;;;23.27;15.85;;;;;;;13.56;54.61;100725.06;5091016;28;20470;-27
2022/12/27 10:33:27;;;;;;;20.75;15.20;;;;;;;13.83;52.56;100716.72;5072849;28;20028;-26
2022/12/27 10:35:53;;;;;;;21.50;15.20;;;;;;;13.74;52.25;100731.50;5072916;28;20032;-27
2022/12/27 10:38:19;;;;;;;21.38;14.32;;;;;;;13.84;51.61;100727.22;5072395;28;20032;-27
2022/12/27 10:41:09;;;;;;;21.15;14.85;;;;;;;14.11;51.92;100726.09;5072637;28;20035;-29
2022/12/27 10:43:38;;;;;;;22.60;14.52;;;;;;;13.94;52.01;100704.44;5072534;28;20039;-27
2022/12/27 10:46:31;;;;;;;21.42;13.73;;;;;;;14.17;51.17;100709.09;5090701;28;20093;-26
2022/12/27 10:49:02;;;;;;;19.65;13.27;;;;;;;14.58;50.98;100702.16;5086730;28;20050;-26
2022/12/27 10:51:56;;;;;;;15.50;10.38;;;;;;;14.91;49.63;100714.22;5090312;28;20031;-28
2022/12/27 10:54:23;;;;;;;15.55;10.30;;;;;;;15.06;49.45;100706.56;5049582;28;20059;-26
2022/12/27 10:56:49;;;;;;;16.42;9.80;;;;;;;15.17;48.72;100713.78;5072288;28;20507;-28
2022/12/27 10:59:25;;;;;;;16.48;10.40;;;;;;;15.46;47.13;100711.19;5090420;28;20031;-26
2022/12/27 11:02:00;;;;;;;18.75;10.30;;;;;;;15.39;47.05;100702.47;5090334;28;20024;-27
2022/12/27 11:04:26;;;;;;;14.95;9.80;;;;;;;15.63;46.21;100701.38;5072237;28;20066;-26
2022/12/27 11:07:00;;;;;;;14.90;9.75;;;;;;;14.78;47.36;100701.84;5090701;28;20024;-28
2022/12/27 11:09:29;;;;;;;16.25;10.02;;;;;;;15.25;47.48;100678.50;5090217;28;20036;-27
2022/12/27 11:12:13;;;;;;;19.33;10.43;;;;;;;15.73;44.84;100687.34;5071866;28;20024;-26
2022/12/27 11:14:39;;;;;;;15.55;8.73;;;;;;;16.15;43.62;100689.78;5072183;28;20035;-28
2022/12/27 11:17:10;;;;;;;14.88;8.95;;;;;;;16.76;42.70;100692.72;5070956;28;20024;-26
2022/12/27 11:19:38;;;;;;;19.65;11.35;;;;;;;16.92;41.36;100674.13;5089658;28;20028;-27
2022/12/27 11:22:07;;;;;;;13.25;8.90;;;;;;;16.71;41.61;100668.41;5089373;28;20100;-29
2022/12/27 11:24:33;;;;;;;14.00;8.65;;;;;;;17.15;41.46;100657.78;5089272;28;20024;-28
2022/12/27 11:26:59;;;;;;;14.35;8.85;;;;;;;17.27;41.73;100665.78;5089236;28;20499;-30
2022/12/27 11:29:28;;;;;;;12.88;8.70;;;;;;;17.16;41.96;100677.47;5089768;28;20147;-27
2022/12/27 11:31:54;;;;;;;12.43;8.40;;;;;;;17.59;41.41;100668.63;5089438;28;20028;-26
2022/12/27 11:34:31;;;;;;;11.80;8.13;;;;;;;16.56;42.25;100678.94;5089425;28;20112;-27
2022/12/27 11:37:14;;;;;;;11.30;8.20;;;;;;;17.07;41.28;100655.50;5089373;28;20016;-27
2022/12/27 11:39:44;;;;;;;13.25;8.70;;;;;;;18.03;41.21;100652.41;5071463;28;20051;-28
2022/12/27 11:42:25;;;;;;;13.57;8.23;;;;;;;18.81;38.54;100672.84;5089281;28;20024;-30
2022/12/27 11:45:02;;;;;;;12.57;8.32;;;;;;;18.85;38.18;100661.25;5089556;28;20036;-31
2022/12/27 11:47:46;;;;;;;12.30;8.45;;;;;;;18.80;38.20;100661.25;5089291;28;20566;-27
2022/12/27 11:50:27;;;;;;;12.73;8.88;;;;;;;18.70;37.99;100644.91;5089119;28;20488;-27
2022/12/27 11:53:00;;;;;;;13.32;9.48;;;;;;;18.57;38.67;100650.75;5089701;28;20067;-28
2022/12/27 11:55:41;;;;;;;13.73;8.73;;;;;;;18.50;38.85;100640.16;5071012;28;20476;-28
2022/12/27 11:58:32;;;;;;;13.13;8.80;;;;;;;19.23;37.89;100659.34;5088510;28;20034;-29
2022/12/27 12:01:45;;;;;;;13.20;8.77;;;;;;;19.63;36.68;100649.78;5049789;28;20051;-29
2022/12/27 12:04:45;;;;;;;14.43;8.90;;;;;;;18.54;38.71;100643.19;4986683;28;20058;-30
2022/12/27 12:07:11;;;;;;;13.45;8.85;;;;;;;19.22;38.04;100652.31;5070845;28;20039;-29
2022/12/27 12:10:13;;;;;;;12.98;8.85;;;;;;;19.31;38.66;100649.94;5089444;28;20032;-29
2022/12/27 12:13:20;;;;;;;13.35;8.60;;;;;;;19.40;37.03;100647.53;5088642;28;20085;-29
2022/12/27 12:16:07;;;;;;;16.38;9.85;;;;;;;18.83;38.12;100628.28;5077558;28;20058;-28
2022/12/27 12:19:10;;;;;;;13.38;9.10;;;;;;;19.11;37.70;100618.19;5088792;28;20056;-28
2022/12/27 12:21:53;;;;;;;14.55;10.07;;;;;;;19.33;36.71;100641.53;5088972;28;20076;-27
2022/12/27 12:24:25;;;;;;;14.38;9.50;;;;;;;19.92;36.54;100643.97;5070347;28;20042;-27
2022/12/27 12:27:08;;;;;;;12.90;8.45;;;;;;;20.32;36.01;100645.09;5088890;28;20032;-26
2022/12/27 12:29:53;;;;;;;14.07;9.65;;;;;;;20.64;35.70;100617.78;5088641;28;20024;-28
2022/12/27 12:32:33;;;;;;;13.07;8.55;;;;;;;20.51;34.87;100622.91;5088595;28;20552;-28
2022/12/27 12:35:23;;;;;;;19.95;9.27;;;;;;;21.37;34.91;100637.41;5089203;28;20020;-27
2022/12/27 12:38:18;;;;;;;14.30;9.05;;;;;;;21.76;33.69;100631.28;5074345;28;20036;-28
2022/12/27 12:40:52;;;;;;;14.45;8.75;;;;;;;22.10;34.31;100638.69;5057760;28;20499;-28
2022/12/27 12:43:44;;;;;;;12.65;8.95;;;;;;;22.64;33.10;100630.41;5092690;28;20036;-28
2022/12/27 12:47:00;;;;;;;14.07;9.07;;;;;;;23.82;31.14;100637.31;5082787;28;20056;-32
2022/12/27 12:49:28;;;;;;;14.02;8.95;;;;;;;23.86;30.98;100642.94;5010392;28;20038;-27
2022/12/27 12:52:11;;;;;;;15.82;9.32;;;;;;;24.08;30.98;100650.53;5010098;28;20042;-27
2022/12/27 12:54:39;;;;;;;14.57;9.13;;;;;;;24.67;29.87;100651.81;5066007;28;20044;-27
2022/12/27 12:57:19;;;;;;;12.82;8.40;;;;;;;24.95;29.03;100656.53;5092364;28;20032;-30
2022/12/27 12:59:48;;;;;;;27.92;24.50;;;;;;;25.62;28.04;100653.28;5092440;28;20107;-27
2022/12/27 13:02:43;;;;;;;12.82;9.32;;;;;;;24.93;28.80;100647.78;5092305;28;20476;-28
2022/12/27 13:05:17;;;;;;;18.00;9.60;;;;;;;25.20;28.88;100653.28;5092486;28;20111;-30
2022/12/27 13:07:43;;;;;;;21.25;9.70;;;;;;;25.60;28.59;100655.53;5092098;28;20034;-28
2022/12/27 13:10:30;;;;;;;13.18;9.85;;;;;;;25.36;28.73;100651.09;5092012;28;20486;-29